• Join FlightAware (Why Join?)
  • Login
  • US Flag 
06:42PM EDT


 

Airport Tracker/Info


-or-


 

Live Flight TrackerFlight Track Log ✈ AMX231 ✈ 30-Oct-2013 ✈ MMTC / TRC - MMMX / MEX

Flight Track Log - Related Links

Times and Time Zones

All times are in EDT time to prevent confusion due to time zone crossing. See the AMX231 flight status page for this flight to view local times or setup timezone preferences in your user account.

Time Position Orientation Groundspeed Altitude Reporting Facility
EDT Latitude Longitude Course Direction KTS MPH feet Rate Location/Type
05:37PM 24.3351 -102.4989 146° Southeast  Level Estimated
05:38PM 24.2579 -102.4425 146° Southeast  Level Estimated
05:39PM 24.1806 -102.3862 146° Southeast  Level Estimated
05:40PM 24.1033 -102.3299 146° Southeast  Level Estimated
05:41PM 24.0260 -102.2738 146° Southeast  Level Estimated
05:42PM 23.9486 -102.2177 146° Southeast  Level Estimated
05:43PM 23.8713 -102.1616 146° Southeast  Level Estimated
05:44PM 23.7939 -102.1056 146° Southeast  Level Estimated
05:45PM 23.7165 -102.0497 147° Southeast  Level Estimated
05:46PM 23.6391 -101.9939 147° Southeast  Level Estimated
05:47PM 23.5616 -101.9381 147° Southeast  Level Estimated
05:48PM 23.4842 -101.8824 147° Southeast  Level Estimated
05:49PM 23.4067 -101.8268 147° Southeast  Level Estimated
05:50PM 23.3292 -101.7712 147° Southeast  Level Estimated
05:51PM 23.2517 -101.7157 147° Southeast  Level Estimated
05:52PM 23.1741 -101.6602 147° Southeast  Level Estimated
05:53PM 23.0966 -101.6048 147° Southeast  Level Estimated
05:54PM 23.0190 -101.5495 147° Southeast  Level Estimated
05:55PM 22.9414 -101.4942 147° Southeast  Level Estimated
05:56PM 22.8638 -101.4390 147° Southeast  Level Estimated
05:57PM 22.7861 -101.3839 147° Southeast  Level Estimated
05:58PM 22.7085 -101.3288 147° Southeast  Level Estimated
05:59PM 22.6308 -101.2738 147° Southeast  Level Estimated
06:00PM 22.5531 -101.2189 147° Southeast  Level Estimated
06:01PM 22.4754 -101.1640 147° Southeast  Level Estimated
06:02PM 22.3977 -101.1092 147° Southeast  Level Estimated
06:03PM 22.3200 -101.0544 147° Southeast  Level Estimated
06:04PM 22.2422 -100.9997 147° Southeast  Level Estimated
06:05PM 22.1644 -100.9451 147° Southeast  Level Estimated
06:06PM 22.0866 -100.8905 147° Southeast  Level Estimated
06:07PM 22.0088 -100.8360 147° Southeast  Level Estimated
06:08PM 21.9310 -100.7815 147° Southeast  Level Estimated
06:09PM 21.8531 -100.7271 147° Southeast  Level Estimated
06:10PM 21.7752 -100.6728 147° Southeast  Level Estimated
06:11PM 21.6921 -100.6148 147° Southeast  Level Estimated
06:12PM 21.6089 -100.5569 147° Southeast  Level Estimated
06:13PM 21.5257 -100.4991 147° Southeast  Level Estimated
06:14PM 21.4425 -100.4414 147° Southeast  Level Estimated
06:15PM 21.3593 -100.3837 147° Southeast  Level Estimated
06:16PM 21.2760 -100.3261 147° Southeast  Level Estimated
06:17PM 21.1928 -100.2685 147° Southeast  Level Estimated
06:18PM 21.1095 -100.2110 147° Southeast  Level Estimated
06:19PM 21.0262 -100.1536 147° Southeast  Level Estimated
06:20PM 20.9428 -100.0963 147° Southeast  Level Estimated
06:21PM 20.8595 -100.0390 147° Southeast  Level Estimated
06:22PM 20.7761 -99.9817 147° Southeast  Level Estimated
06:23PM 20.6927 -99.9246 147° Southeast  Level Estimated
06:24PM 20.6093 -99.8675 147° Southeast  Level Estimated
06:25PM 20.5259 -99.8104 147° Southeast  Level Estimated
06:26PM 20.4425 -99.7534 147° Southeast  Level Estimated
06:27PM 20.3590 -99.6965 147° Southeast  Level Estimated
06:28PM 20.2755 -99.6397 147° Southeast  Level Estimated
06:29PM 20.1920 -99.5829 147° Southeast  Level Estimated
06:30PM 20.1085 -99.5261 147° Southeast  Level Estimated
06:31PM 20.0250 -99.4695 147° Southeast  Level Estimated
06:32PM 19.9414 -99.4128 148° Southeast  Level Estimated
06:33PM 19.8578 -99.3563 148° Southeast  Level Estimated
06:34PM 19.7743 -99.2998 148° Southeast  Level Estimated
06:35PM 19.6907 -99.2433 148° Southeast  Level Estimated
06:36PM 19.6070 -99.1870 148° Southeast  Level Estimated
06:37PM 19.5234 -99.1307 148° Southeast  Level Estimated
06:38PM 19.4397 -99.0744 148° Southeast  Level Estimated
06:39PM 19.4363 -99.0721 148° Southeast  Level Estimated
06:40PM 19.4363 -99.0721 43° Northeast  Level Estimated
06:41PM 19.4363 -99.0721 43° Northeast  Level Estimated
06:42PM 19.4363 -99.0721 43° Northeast  Level Estimated
06:43PM 19.4363 -99.0721 43° Northeast  Level Estimated
06:44PM 19.4363 -99.0721 43° Northeast  Level Estimated
06:45PM 19.4363 -99.0721 43° Northeast  Level Estimated
06:46PM 19.4363 -99.0721 43° Northeast  Level Estimated
06:47PM 19.4363 -99.0721 43° Northeast  Level Estimated
06:48PM 19.4363 -99.0721 43° Northeast  Level Estimated
06:49PM 19.4363 -99.0721 43° Northeast  Level Estimated
06:50PM 19.4363 -99.0721 43° Northeast  Level Estimated
06:51PM 19.4363 -99.0721 43° Northeast  Level Estimated